createdAt,value
2022-10-03T00:01:15.691Z,102088.66
2022-10-03T00:02:38.793Z,102085.00
2022-10-03T00:03:57.485Z,102086.94
2022-10-03T00:05:11.514Z,102095.00
2022-10-03T00:06:16.742Z,102089.78
2022-10-03T00:07:37.492Z,102097.78
2022-10-03T00:08:57.412Z,102096.06
2022-10-03T00:10:12.431Z,102099.66
2022-10-03T00:11:27.999Z,102100.63
2022-10-03T00:12:47.261Z,102095.41
2022-10-03T00:17:20.626Z,102100.06
2022-10-03T00:18:36.464Z,102109.84
2022-10-03T00:21:03.858Z,102104.63
2022-10-03T00:22:18.860Z,102098.56
2022-10-03T00:23:25.258Z,102106.56
2022-10-03T00:25:46.285Z,102105.78
2022-10-03T00:26:52.628Z,102103.22
2022-10-03T00:28:10.861Z,102108.53
2022-10-03T00:29:31.156Z,102108.63
2022-10-03T00:30:50.901Z,102106.09
2022-10-03T00:32:06.199Z,102108.84
2022-10-03T00:33:19.728Z,102113.28
2022-10-03T00:34:29.905Z,102110.75
2022-10-03T00:35:50.854Z,102109.97
2022-10-03T00:37:08.427Z,102113.59
2022-10-03T00:38:28.901Z,102112.75
2022-10-03T00:39:46.054Z,102111.88
2022-10-03T00:41:11.409Z,102110.16
2022-10-03T00:43:08.206Z,102110.16
2022-10-03T00:44:47.271Z,102106.75
2022-10-03T00:46:32.345Z,102120.91
2022-10-03T00:48:08.989Z,102112.16
2022-10-03T00:49:52.640Z,102124.59
2022-10-03T00:51:11.324Z,102121.19
2022-10-03T00:52:31.278Z,102118.59
2022-10-03T00:53:47.391Z,102113.28
2022-10-03T00:55:02.508Z,102116.94
2022-10-03T00:56:21.567Z,102117.78
2022-10-03T00:57:51.499Z,102119.59
2022-10-03T00:59:06.815Z,102120.63
2022-10-03T01:00:19.578Z,102128.63
2022-10-03T01:01:30.170Z,102132.09
2022-10-03T01:02:46.831Z,102121.56
2022-10-03T01:04:00.325Z,102125.09
2022-10-03T01:05:12.958Z,102132.22
2022-10-03T01:06:27.029Z,102131.34
2022-10-03T01:07:56.276Z,102127.84
2022-10-03T01:09:18.733Z,102128.78
2022-10-03T01:10:29.673Z,102128.78
2022-10-03T01:11:47.751Z,102136.00
2022-10-03T01:13:04.715Z,102126.22
2022-10-03T01:14:23.061Z,102137.91
2022-10-03T01:15:34.562Z,102133.53
2022-10-03T01:16:52.170Z,102136.28
2022-10-03T01:18:10.104Z,102139.78
2022-10-03T01:19:33.523Z,102135.53
2022-10-03T01:20:46.614Z,102138.19
2022-10-03T01:22:41.980Z,102135.53
2022-10-03T01:24:15.737Z,102137.44
2022-10-03T01:25:19.672Z,102131.25
2022-10-03T01:26:50.573Z,102137.53
2022-10-03T01:28:19.421Z,102133.25
2022-10-03T01:29:50.313Z,102142.09
2022-10-03T01:30:56.704Z,102136.00
2022-10-03T01:32:05.227Z,102136.00
2022-10-03T01:33:13.951Z,102133.34
2022-10-03T01:34:24.123Z,102138.66
2022-10-03T01:35:37.410Z,102138.66
2022-10-03T01:36:49.825Z,102133.34
2022-10-03T01:38:01.717Z,102138.66
2022-10-03T01:39:14.853Z,102136.97
2022-10-03T01:40:27.182Z,102136.97
2022-10-03T01:41:36.920Z,102143.13
2022-10-03T01:42:54.777Z,102131.66
2022-10-03T01:44:02.299Z,102138.84
2022-10-03T01:45:15.537Z,102146.81
2022-10-03T01:46:21.620Z,102135.34
2022-10-03T01:47:32.235Z,102137.16
2022-10-03T01:48:43.714Z,102146.06
2022-10-03T01:49:55.438Z,102143.41
2022-10-03T01:51:04.835Z,102144.34
2022-10-03T01:52:16.616Z,102138.09
2022-10-03T01:53:28.064Z,102139.03
2022-10-03T01:54:37.790Z,102140.75
2022-10-03T01:55:50.690Z,102147.00
2022-10-03T01:56:58.401Z,102143.47
2022-10-03T01:58:07.713Z,102147.97
2022-10-03T01:59:17.962Z,102146.25
2022-10-03T02:00:25.820Z,102146.25
2022-10-03T02:01:35.453Z,102150.72
2022-10-03T02:02:46.131Z,102148.91
2022-10-03T02:03:56.394Z,102152.50
2022-10-03T02:05:06.829Z,102156.88
2022-10-03T02:06:20.590Z,102153.28
2022-10-03T02:07:28.400Z,102164.66
2022-10-03T02:08:51.763Z,102168.25
2022-10-03T02:10:07.009Z,102170.84
2022-10-03T02:11:12.305Z,102162.88
2022-10-03T02:12:23.912Z,102173.38
2022-10-03T02:13:31.785Z,102176.03
2022-10-03T02:14:45.889Z,102170.72
2022-10-03T02:16:02.492Z,102169.78
2022-10-03T02:17:09.690Z,102172.44
2022-10-03T02:18:17.733Z,102171.69
2022-10-03T02:19:24.292Z,102180.59
2022-10-03T02:20:37.148Z,102166.56
2022-10-03T02:21:48.114Z,102170.16
2022-10-03T02:22:54.839Z,102164.84
2022-10-03T02:24:26.665Z,102166.75
2022-10-03T02:25:52.061Z,102165.13
2022-10-03T02:27:13.655Z,102170.53
2022-10-03T02:28:44.853Z,102168.06
2022-10-03T02:30:13.591Z,102172.53
2022-10-03T02:31:38.906Z,102168.25
2022-10-03T02:33:44.303Z,102167.41
2022-10-03T02:35:10.389Z,102163.97
2022-10-03T02:36:49.447Z,102167.66
2022-10-03T02:38:34.894Z,102168.59
2022-10-03T02:40:00.525Z,102168.78
2022-10-03T02:41:20.203Z,102174.09
2022-10-03T02:43:10.395Z,102169.75
2022-10-03T02:44:41.231Z,102168.97
2022-10-03T02:46:10.778Z,102173.53
2022-10-03T02:47:42.033Z,102178.09
2022-10-03T02:49:12.689Z,102171.91
2022-10-03T02:51:49.980Z,102172.91
2022-10-03T02:53:09.920Z,102176.53
2022-10-03T02:54:45.569Z,102171.22
2022-10-03T02:57:30.979Z,102183.72
2022-10-03T02:59:00.533Z,102182.03
2022-10-03T03:00:09.682Z,102185.59
2022-10-03T03:01:48.221Z,102181.16
2022-10-03T03:03:37.350Z,102183.88
2022-10-03T03:05:22.280Z,102189.19
2022-10-03T03:06:43.785Z,102186.66
2022-10-03T03:08:09.296Z,102190.16
2022-10-03T03:09:34.822Z,102194.50
2022-10-03T03:10:59.605Z,102191.78
2022-10-03T03:12:41.266Z,102193.50
2022-10-03T03:14:19.057Z,102204.78
2022-10-03T03:16:02.514Z,102199.34
2022-10-03T03:17:16.327Z,102197.44
2022-10-03T03:18:30.312Z,102191.94
2022-10-03T03:20:17.630Z,102193.56
2022-10-03T03:21:29.407Z,102202.97
2022-10-03T03:22:46.051Z,102201.94
2022-10-03T03:24:01.388Z,102198.22
2022-10-03T03:25:33.246Z,102203.34
2022-10-03T03:26:55.763Z,102202.31
2022-10-03T03:28:11.990Z,102196.00
2022-10-03T03:29:24.248Z,102200.25
2022-10-03T03:30:37.380Z,102201.13
2022-10-03T03:31:48.940Z,102196.75
2022-10-03T03:33:07.823Z,102199.41
2022-10-03T03:34:19.005Z,102196.63
2022-10-03T03:35:33.280Z,102200.16
2022-10-03T03:36:41.388Z,102200.94
2022-10-03T03:37:52.285Z,102201.78
2022-10-03T03:39:04.297Z,102199.03
2022-10-03T03:40:29.546Z,102194.44
2022-10-03T03:41:46.570Z,102186.47
2022-10-03T03:43:12.358Z,102188.19
2022-10-03T03:44:46.254Z,102192.66
2022-10-03T03:46:00.241Z,102196.16
2022-10-03T03:47:22.803Z,102189.91
2022-10-03T03:49:02.058Z,102195.22
2022-10-03T03:50:23.381Z,102196.84
2022-10-03T03:51:34.347Z,102195.03
2022-10-03T03:52:49.874Z,102191.44
2022-10-03T03:54:19.452Z,102202.81
2022-10-03T03:55:52.630Z,102198.44
2022-10-03T03:57:14.506Z,102197.59
2022-10-03T03:58:30.916Z,102195.03
2022-10-03T03:59:47.752Z,102204.91
2022-10-03T04:01:08.517Z,102198.81
2022-10-03T04:02:28.949Z,102196.16
2022-10-03T04:03:43.203Z,102198.94
2022-10-03T04:05:07.900Z,102199.03
2022-10-03T04:06:36.419Z,102206.91
2022-10-03T04:07:50.320Z,102209.47
2022-10-03T04:09:09.946Z,102208.59
2022-10-03T04:10:22.636Z,102206.72
2022-10-03T04:11:31.499Z,102208.41
2022-10-03T04:12:53.956Z,102211.00
2022-10-03T04:14:19.145Z,102217.91
2022-10-03T04:15:39.050Z,102222.28
2022-10-03T04:17:13.892Z,102216.88
2022-10-03T04:18:51.286Z,102214.22
2022-10-03T04:20:13.373Z,102222.09
2022-10-03T04:21:31.092Z,102215.94
2022-10-03T04:22:53.672Z,102219.53
2022-10-03T04:24:19.707Z,102223.03
2022-10-03T04:25:41.019Z,102214.22
2022-10-03T04:27:03.854Z,102214.22
2022-10-03T04:28:36.051Z,102219.34
2022-10-03T04:29:44.226Z,102216.69
2022-10-03T04:30:56.854Z,102213.00
2022-10-03T04:32:14.982Z,102219.00
2022-10-03T04:33:32.588Z,102218.03
2022-10-03T04:34:47.930Z,102213.47
2022-10-03T04:36:22.934Z,102221.34
2022-10-03T04:37:40.222Z,102214.16
2022-10-03T04:38:51.090Z,102212.31
2022-10-03T04:40:09.274Z,102209.66
2022-10-03T04:41:23.312Z,102203.41
2022-10-03T04:42:40.936Z,102213.97
2022-10-03T04:43:52.357Z,102206.81
2022-10-03T04:45:06.059Z,102212.25
2022-10-03T04:46:23.270Z,102206.06
2022-10-03T04:47:34.003Z,102219.47
2022-10-03T04:48:39.829Z,102214.16
2022-10-03T04:49:48.778Z,102222.22
2022-10-03T04:51:03.514Z,102220.59
2022-10-03T04:52:16.552Z,102219.81
2022-10-03T04:53:40.909Z,102219.00
2022-10-03T04:54:52.789Z,102215.56
2022-10-03T04:56:00.819Z,102214.69
2022-10-03T04:57:12.465Z,102217.47
2022-10-03T04:58:23.241Z,102220.97
2022-10-03T04:59:35.383Z,102225.44
2022-10-03T05:00:49.536Z,102223.63
2022-10-03T05:01:56.780Z,102219.06
2022-10-03T05:03:06.243Z,102217.16
2022-10-03T05:04:23.111Z,102224.19
2022-10-03T05:05:58.225Z,102209.84
2022-10-03T05:07:10.915Z,102218.63
2022-10-03T05:08:29.828Z,102220.28
2022-10-03T05:09:41.103Z,102222.97
2022-10-03T05:10:57.265Z,102218.41
2022-10-03T05:12:08.402Z,102217.56
2022-10-03T05:13:17.018Z,102223.75
2022-10-03T05:14:28.881Z,102220.09
2022-10-03T05:15:35.957Z,102225.44
2022-10-03T05:16:43.512Z,102220.88
2022-10-03T05:17:55.645Z,102220.03
2022-10-03T05:19:24.029Z,102227.16
2022-10-03T05:20:43.090Z,102221.81
2022-10-03T05:21:49.743Z,102225.28
2022-10-03T05:23:02.021Z,102229.72
2022-10-03T05:24:24.238Z,102232.28
2022-10-03T05:25:34.020Z,102225.28
2022-10-03T05:26:47.230Z,102230.59
2022-10-03T05:27:59.205Z,102239.50
2022-10-03T05:29:11.279Z,102240.38
2022-10-03T05:30:19.803Z,102245.56
2022-10-03T05:31:30.360Z,102242.03
2022-10-03T05:32:41.624Z,102240.25
2022-10-03T05:33:50.868Z,102243.78
2022-10-03T05:35:08.368Z,102243.78
2022-10-03T05:36:19.839Z,102243.69
2022-10-03T05:37:43.949Z,102246.34
2022-10-03T05:39:35.134Z,102248.81
2022-10-03T05:40:44.036Z,102247.84
2022-10-03T05:42:17.809Z,102245.19
2022-10-03T05:43:29.080Z,102249.56
2022-10-03T05:44:42.399Z,102243.31
2022-10-03T05:45:55.034Z,102249.56
2022-10-03T05:47:01.059Z,102248.69
2022-10-03T05:48:19.929Z,102244.25
2022-10-03T05:49:44.047Z,102255.63
2022-10-03T05:51:20.224Z,102251.28
2022-10-03T05:52:43.411Z,102252.97
2022-10-03T05:54:18.226Z,102260.19
2022-10-03T05:55:33.891Z,102261.91
2022-10-03T05:56:58.046Z,102260.19
2022-10-03T05:58:22.638Z,102256.69
2022-10-03T05:59:43.344Z,102261.91
2022-10-03T06:01:09.876Z,102258.47
2022-10-03T06:02:44.935Z,102265.53
2022-10-03T06:04:14.509Z,102262.88
2022-10-03T06:05:29.515Z,102265.44
2022-10-03T06:06:43.493Z,102270.66
2022-10-03T06:08:02.871Z,102272.38
2022-10-03T06:09:24.964Z,102268.78
2022-10-03T06:10:47.039Z,102273.13
2022-10-03T06:12:11.001Z,102272.19
2022-10-03T06:13:20.291Z,102271.25
2022-10-03T06:14:34.732Z,102271.13
2022-10-03T06:15:54.191Z,102268.38
2022-10-03T06:17:10.270Z,102280.72
2022-10-03T06:18:38.526Z,102272.72
2022-10-03T06:19:49.666Z,102272.66
2022-10-03T06:21:19.369Z,102273.50
2022-10-03T06:23:05.785Z,102279.69
2022-10-03T06:24:38.370Z,102276.91
2022-10-03T06:26:15.340Z,102276.06
2022-10-03T06:27:55.195Z,102276.91
2022-10-03T06:29:30.923Z,102276.06
2022-10-03T06:30:53.405Z,102276.06
2022-10-03T06:32:29.014Z,102278.84
2022-10-03T06:34:22.390Z,102280.53
2022-10-03T06:35:53.884Z,102285.84
2022-10-03T06:37:16.315Z,102282.25
2022-10-03T06:39:09.509Z,102281.19
2022-10-03T06:40:48.784Z,102282.06
2022-10-03T06:42:24.746Z,102282.91
2022-10-03T06:43:57.062Z,102283.78
2022-10-03T06:45:24.843Z,102276.53
2022-10-03T06:46:48.089Z,102287.00
2022-10-03T06:48:08.424Z,102281.66
2022-10-03T06:49:48.885Z,102282.53
2022-10-03T06:50:55.387Z,102279.00
2022-10-03T06:52:19.435Z,102284.25
2022-10-03T06:53:40.483Z,102284.31
2022-10-03T06:55:17.937Z,102287.09
2022-10-03T06:56:57.741Z,102283.56
2022-10-03T06:58:20.127Z,102288.03
2022-10-03T06:59:55.040Z,102291.56
2022-10-03T07:01:20.104Z,102290.63
2022-10-03T07:02:48.630Z,102288.63
2022-10-03T07:04:07.906Z,102293.66
2022-10-03T07:05:43.741Z,102291.56
2022-10-03T07:07:10.963Z,102296.50
2022-10-03T07:08:37.489Z,102291.00
2022-10-03T07:10:05.613Z,102297.72
2022-10-03T07:11:29.245Z,102292.13
2022-10-03T07:12:53.857Z,102291.75
2022-10-03T07:14:18.344Z,102297.56
2022-10-03T07:16:26.028Z,102304.28
2022-10-03T07:17:46.490Z,102295.91
2022-10-03T07:19:40.620Z,102307.22
2022-10-03T07:21:03.819Z,102307.00
2022-10-03T07:22:48.735Z,102302.53
2022-10-03T07:24:07.728Z,102301.69
2022-10-03T07:25:33.087Z,102307.00
2022-10-03T07:27:17.756Z,102317.66
2022-10-03T07:28:48.402Z,102304.47
2022-10-03T07:30:09.540Z,102304.47
2022-10-03T07:31:23.493Z,102313.19
2022-10-03T07:32:41.850Z,102313.13
2022-10-03T07:34:29.630Z,102318.25
2022-10-03T07:36:08.775Z,102321.75
2022-10-03T07:37:46.710Z,102318.91
2022-10-03T07:39:12.227Z,102321.38
2022-10-03T07:40:50.863Z,102319.44
2022-10-03T07:42:22.147Z,102319.44
2022-10-03T07:44:00.788Z,102322.03
2022-10-03T07:45:42.084Z,102325.34
2022-10-03T07:47:11.114Z,102335.88
2022-10-03T07:48:36.507Z,102328.66
2022-10-03T07:50:31.103Z,102340.16
2022-10-03T07:51:45.011Z,102341.00
2022-10-03T07:53:01.000Z,102334.81
2022-10-03T07:54:30.091Z,102334.00
2022-10-03T07:55:52.387Z,102343.78
2022-10-03T07:57:24.591Z,102341.13
2022-10-03T07:58:58.684Z,102341.13
2022-10-03T08:00:10.732Z,102344.53
2022-10-03T08:01:52.373Z,102339.97
2022-10-03T08:03:33.300Z,102353.19
2022-10-03T08:05:03.997Z,102346.13
2022-10-03T08:06:21.039Z,102344.53
2022-10-03T08:07:52.196Z,102347.41
2022-10-03T08:09:28.968Z,102345.78
2022-10-03T08:11:04.333Z,102346.84
2022-10-03T08:12:29.863Z,102340.88
2022-10-03T08:13:43.516Z,102337.44
2022-10-03T08:14:57.944Z,102350.09
2022-10-03T08:16:13.219Z,102346.69
2022-10-03T08:18:09.830Z,102357.25
2022-10-03T08:19:28.720Z,102358.84
2022-10-03T08:20:41.794Z,102356.94
2022-10-03T08:21:59.489Z,102363.03
2022-10-03T08:23:23.704Z,102356.00
2022-10-03T08:24:56.607Z,102362.19
2022-10-03T08:26:17.020Z,102360.38
2022-10-03T08:27:43.941Z,102368.25
2022-10-03T08:29:22.725Z,102369.84
2022-10-03T08:30:27.654Z,102369.78
2022-10-03T08:31:49.658Z,102371.38
2022-10-03T08:33:07.383Z,102366.78
2022-10-03T08:34:38.418Z,102364.91
2022-10-03T08:36:32.815Z,102368.13
2022-10-03T08:38:05.705Z,102360.69
2022-10-03T08:39:13.911Z,102367.34
2022-10-03T08:40:57.002Z,102366.94
2022-10-03T08:42:27.154Z,102369.19
2022-10-03T08:44:03.170Z,102371.66
2022-10-03T08:45:35.139Z,102367.84
2022-10-03T08:47:07.240Z,102369.53
2022-10-03T08:48:46.146Z,102368.59
2022-10-03T08:50:36.463Z,102365.91
2022-10-03T08:52:05.425Z,102367.63
2022-10-03T08:53:44.237Z,102358.66
2022-10-03T08:55:10.048Z,102361.97
2022-10-03T08:56:17.611Z,102359.13
2022-10-03T08:57:38.186Z,102345.69
2022-10-03T08:59:28.625Z,102343.78
2022-10-03T09:00:47.824Z,102344.63
2022-10-03T09:02:37.404Z,102341.88
2022-10-03T09:04:26.319Z,102345.28
2022-10-03T09:08:24.994Z,102341.25
2022-10-03T09:09:56.637Z,102340.19
2022-10-03T09:11:23.901Z,102344.44
2022-10-03T09:12:47.833Z,102344.28
2022-10-03T09:14:18.983Z,102345.97
2022-10-03T09:15:53.394Z,102339.59
2022-10-03T09:17:09.309Z,102343.88
2022-10-03T09:18:36.081Z,102346.34
2022-10-03T09:20:11.939Z,102343.47
2022-10-03T09:21:38.926Z,102339.84
2022-10-03T09:23:13.451Z,102344.19
2022-10-03T09:24:49.047Z,102346.88
2022-10-03T09:26:09.166Z,102349.31
2022-10-03T09:30:32.283Z,102351.78
2022-10-03T09:32:09.762Z,102358.63
2022-10-03T09:33:50.890Z,102348.72
2022-10-03T09:35:26.956Z,102351.19
2022-10-03T09:37:13.683Z,102344.75
2022-10-03T09:38:45.248Z,102347.09
2022-10-03T09:40:19.507Z,102329.28
2022-10-03T09:42:21.976Z,102334.53
2022-10-03T09:43:54.509Z,102330.69
2022-10-03T09:45:28.162Z,102332.16
2022-10-03T09:47:09.121Z,102334.59
2022-10-03T09:48:27.008Z,102337.91
2022-10-03T09:49:48.248Z,102331.53
2022-10-03T09:51:06.222Z,102333.00
2022-10-03T09:52:42.795Z,102338.97
2022-10-03T09:54:23.689Z,102323.59
2022-10-03T09:55:41.558Z,102329.50
2022-10-03T09:57:09.922Z,102323.81
2022-10-03T09:58:40.882Z,102324.44
2022-10-03T10:01:15.389Z,102320.16
2022-10-03T10:02:47.486Z,102327.00
2022-10-03T10:04:53.128Z,102324.81
2022-10-03T10:06:08.373Z,102318.94
2022-10-03T10:07:41.351Z,102322.88
2022-10-03T10:09:02.066Z,102329.63
2022-10-03T10:10:31.905Z,102328.44
2022-10-03T10:12:00.043Z,102326.25
2022-10-03T10:13:18.041Z,102332.88
2022-10-03T10:14:45.149Z,102325.38
2022-10-03T10:16:10.318Z,102322.34
2022-10-03T10:17:45.882Z,102325.44
2022-10-03T10:19:16.148Z,102319.75
2022-10-03T10:20:32.873Z,102318.44
2022-10-03T10:21:53.520Z,102314.31
2022-10-03T10:23:11.908Z,102316.44
2022-10-03T10:24:46.409Z,102320.34
2022-10-03T10:26:25.317Z,102319.03
2022-10-03T10:28:05.833Z,102315.03
2022-10-03T10:29:22.870Z,102319.81
2022-10-03T10:30:55.154Z,102315.78
2022-10-03T10:32:30.909Z,102321.41
2022-10-03T10:34:20.224Z,102326.94
2022-10-03T10:36:10.664Z,102314.03
2022-10-03T10:37:54.077Z,102306.63
2022-10-03T10:39:28.832Z,102316.25
2022-10-03T10:40:53.854Z,102308.97
2022-10-03T10:42:56.688Z,102309.81
2022-10-03T10:44:36.575Z,102300.78
2022-10-03T10:45:46.765Z,102308.72
2022-10-03T10:47:23.436Z,102303.22
2022-10-03T10:49:07.427Z,102304.84
2022-10-03T10:50:32.056Z,102308.22
2022-10-03T10:52:13.900Z,102300.91
2022-10-03T10:53:53.580Z,102295.31
2022-10-03T10:55:23.750Z,102303.09
2022-10-03T10:57:01.755Z,102301.19
2022-10-03T10:58:53.058Z,102303.84
2022-10-03T11:00:16.107Z,102306.41
2022-10-03T11:01:46.755Z,102302.75
2022-10-03T11:03:28.810Z,102299.22
2022-10-03T11:05:10.427Z,102305.56
2022-10-03T11:06:53.889Z,102306.53
2022-10-03T11:08:38.301Z,102308.97
2022-10-03T11:10:16.420Z,102306.16
2022-10-03T11:11:59.623Z,102309.44
2022-10-03T11:13:37.455Z,102302.88
2022-10-03T11:15:15.031Z,102306.06
2022-10-03T11:17:01.203Z,102303.00
2022-10-03T11:18:44.507Z,102303.59
2022-10-03T11:20:22.713Z,102293.63
2022-10-03T11:22:08.927Z,102301.41
2022-10-03T11:23:57.526Z,102306.63
2022-10-03T11:25:40.991Z,102296.88
2022-10-03T11:27:28.877Z,102298.75
2022-10-03T11:29:21.741Z,102304.91
2022-10-03T11:31:07.759Z,102298.34
2022-10-03T11:32:37.176Z,102303.44
2022-10-03T11:34:17.728Z,102297.00
2022-10-03T11:35:53.865Z,102295.06
2022-10-03T11:37:09.149Z,102291.41
2022-10-03T11:38:20.032Z,102291.16
2022-10-03T11:39:32.066Z,102287.22
2022-10-03T11:40:49.547Z,102285.28
2022-10-03T11:42:02.067Z,102292.22
2022-10-03T11:43:33.038Z,102287.72
2022-10-03T11:44:42.652Z,102289.44
2022-10-03T11:45:51.434Z,102286.88
2022-10-03T11:47:17.122Z,102285.28
2022-10-03T11:48:39.721Z,102282.88
2022-10-03T11:50:19.755Z,102290.06
2022-10-03T11:51:37.931Z,102282.00
2022-10-03T11:52:58.439Z,102277.50
2022-10-03T11:54:30.588Z,102281.88
2022-10-03T11:55:44.087Z,102287.22
2022-10-03T11:56:51.743Z,102285.28
2022-10-03T11:58:11.072Z,102279.94
2022-10-03T12:00:00.953Z,102288.22
2022-10-03T12:01:19.778Z,102282.13
2022-10-03T12:02:41.933Z,102284.94
2022-10-03T12:03:53.574Z,102282.38
2022-10-03T12:05:00.636Z,102287.72
2022-10-03T12:06:40.259Z,102288.59
2022-10-03T12:08:08.272Z,102274.47
2022-10-03T12:09:17.089Z,102275.53
2022-10-03T12:10:39.037Z,102278.38
2022-10-03T12:11:53.624Z,102273.00
2022-10-03T12:12:57.987Z,102269.63
2022-10-03T12:14:13.045Z,102274.97
2022-10-03T12:15:27.411Z,102269.88
2022-10-03T12:16:39.086Z,102274.38
2022-10-03T12:17:46.733Z,102273.63
2022-10-03T12:19:05.306Z,102270.94
2022-10-03T12:20:18.286Z,102270.94
2022-10-03T12:21:25.276Z,102273.63
2022-10-03T12:22:43.489Z,102272.91
2022-10-03T12:24:02.751Z,102268.66
2022-10-03T12:25:19.099Z,102264.38
2022-10-03T12:26:28.802Z,102269.72
2022-10-03T12:27:42.547Z,102261.84
2022-10-03T12:28:50.766Z,102267.19
2022-10-03T12:29:58.649Z,102264.50
2022-10-03T12:31:13.967Z,102264.63
2022-10-03T12:32:29.589Z,102259.50
2022-10-03T12:33:47.879Z,102269.25
2022-10-03T12:35:02.602Z,102269.50
2022-10-03T12:37:25.502Z,102256.84
2022-10-03T12:38:56.355Z,102267.56
2022-10-03T12:40:06.465Z,102258.44
2022-10-03T12:41:22.337Z,102258.19
2022-10-03T12:42:29.183Z,102264.16
2022-10-03T12:43:46.972Z,102256.59
2022-10-03T12:44:56.113Z,102261.69
2022-10-03T12:46:02.370Z,102259.47
2022-10-03T12:47:37.620Z,102260.94
2022-10-03T12:48:51.703Z,102260.81
2022-10-03T12:50:00.119Z,102257.03
2022-10-03T12:51:09.503Z,102258.50
2022-10-03T12:52:19.106Z,102260.06
2022-10-03T12:53:31.136Z,102263.34
2022-10-03T12:54:48.205Z,102265.06
2022-10-03T12:56:02.769Z,102268.34
2022-10-03T12:57:35.294Z,102264.53
2022-10-03T12:58:51.415Z,102267.94
2022-10-03T13:00:02.999Z,102270.63
2022-10-03T13:01:16.835Z,102263.34
2022-10-03T13:02:27.775Z,102265.78
2022-10-03T13:03:44.400Z,102260.41
2022-10-03T13:05:02.369Z,102267.19
2022-10-03T13:06:44.450Z,102258.56
2022-10-03T13:07:53.905Z,102264.06
2022-10-03T13:09:11.836Z,102258.00
2022-10-03T13:10:29.317Z,102255.06
2022-10-03T13:11:42.539Z,102260.88
2022-10-03T13:12:50.966Z,102259.63
2022-10-03T13:14:07.623Z,102260.94
2022-10-03T13:15:58.985Z,102255.22
2022-10-03T13:17:12.003Z,102256.41
2022-10-03T13:18:27.647Z,102253.47
2022-10-03T13:19:40.608Z,102247.94
2022-10-03T13:20:53.396Z,102244.28
2022-10-03T13:22:06.100Z,102252.19
2022-10-03T13:23:20.328Z,102251.22
2022-10-03T13:24:32.975Z,102235.88
2022-10-03T13:25:45.247Z,102238.66
2022-10-03T13:26:55.693Z,102234.28
2022-10-03T13:28:05.420Z,102237.09
2022-10-03T13:29:20.575Z,102240.75
2022-10-03T13:30:27.014Z,102227.34
2022-10-03T13:31:32.213Z,102228.31
2022-10-03T13:32:42.414Z,102233.69
2022-10-03T13:33:46.918Z,102236.38
2022-10-03T13:35:23.169Z,102230.19
2022-10-03T13:36:32.188Z,102233.81
2022-10-03T13:37:58.024Z,102236.50
2022-10-03T13:39:18.052Z,102236.63
2022-10-03T13:40:20.095Z,102230.41
2022-10-03T13:41:35.542Z,102229.59
2022-10-03T13:42:42.226Z,102225.19
2022-10-03T13:43:50.589Z,102228.56
2022-10-03T13:44:56.624Z,102228.56
2022-10-03T13:46:02.338Z,102227.88
2022-10-03T13:47:20.695Z,102230.66
2022-10-03T13:48:27.406Z,102228.97
2022-10-03T13:49:34.423Z,102224.72
2022-10-03T13:50:46.983Z,102220.34
2022-10-03T13:51:58.619Z,102222.28
2022-10-03T13:53:06.694Z,102220.59
2022-10-03T13:54:15.861Z,102217.19
2022-10-03T13:55:30.263Z,102224.38
2022-10-03T13:56:45.350Z,102216.47
2022-10-03T13:58:03.398Z,102213.09
2022-10-03T13:59:16.897Z,102212.09
2022-10-03T14:00:21.962Z,102203.31
2022-10-03T14:01:38.346Z,102209.66
2022-10-03T14:02:52.150Z,102208.69
2022-10-03T14:04:15.920Z,102201.50
2022-10-03T14:05:44.686Z,102201.63
2022-10-03T14:06:55.295Z,102212.09
2022-10-03T14:08:08.661Z,102208.44
2022-10-03T14:09:38.030Z,102212.81
2022-10-03T14:11:05.247Z,102203.06
2022-10-03T14:12:33.043Z,102215.63
2022-10-03T14:13:56.706Z,102213.09
2022-10-03T14:15:18.931Z,102210.41
2022-10-03T14:16:27.443Z,102213.78
2022-10-03T14:17:41.176Z,102214.50
2022-10-03T14:18:53.429Z,102214.25
2022-10-03T14:20:10.272Z,102209.72
2022-10-03T14:21:37.522Z,102205.22
2022-10-03T14:22:52.240Z,102208.06
2022-10-03T14:24:07.150Z,102205.38
2022-10-03T14:25:34.522Z,102211.97
2022-10-03T14:26:42.996Z,102214.66
2022-10-03T14:27:52.917Z,102205.75
2022-10-03T14:29:03.403Z,102216.47
2022-10-03T14:30:10.026Z,102214.66
2022-10-03T14:31:24.186Z,102210.00
2022-10-03T14:32:46.791Z,102205.47
2022-10-03T14:33:58.951Z,102212.56
2022-10-03T14:35:11.172Z,102210.84
2022-10-03T14:36:31.470Z,102211.81
2022-10-03T14:37:40.712Z,102213.66
2022-10-03T14:39:05.266Z,102202.91
2022-10-03T14:40:16.844Z,102196.72
2022-10-03T14:41:23.546Z,102198.56
2022-10-03T14:42:41.164Z,102199.53
2022-10-03T14:43:50.501Z,102191.47
2022-10-03T14:44:56.414Z,102193.47
2022-10-03T14:46:02.588Z,102188.09
2022-10-03T14:47:11.202Z,102186.25
2022-10-03T14:48:17.225Z,102188.94
2022-10-03T14:49:52.406Z,102188.81
2022-10-03T14:50:54.648Z,102185.25
2022-10-03T14:52:02.094Z,102184.28
2022-10-03T14:53:10.861Z,102180.63
2022-10-03T14:54:20.516Z,102183.19
2022-10-03T14:55:30.378Z,102172.44
2022-10-03T14:56:35.687Z,102164.41
2022-10-03T14:58:08.739Z,102184.03
2022-10-03T14:59:14.268Z,102173.56
2022-10-03T15:00:33.255Z,102169.16
2022-10-03T15:01:35.980Z,102169.16
2022-10-03T15:02:44.733Z,102170.19
2022-10-03T15:03:59.010Z,102170.88
2022-10-03T15:05:08.582Z,102171.84
2022-10-03T15:06:35.595Z,102170.88
2022-10-03T15:07:40.589Z,102174.41
2022-10-03T15:08:45.543Z,102174.16
2022-10-03T15:09:54.228Z,102181.22
2022-10-03T15:10:56.840Z,102179.38
2022-10-03T15:12:03.029Z,102178.41
2022-10-03T15:13:09.480Z,102173.75
2022-10-03T15:14:12.092Z,102187.16
2022-10-03T15:15:19.009Z,102175.47
2022-10-03T15:16:22.424Z,102175.47
2022-10-03T15:17:28.974Z,102176.19
2022-10-03T15:18:31.670Z,102172.50
2022-10-03T15:19:40.296Z,102167.16
2022-10-03T15:20:44.520Z,102169.81
2022-10-03T15:21:49.666Z,102167.16
2022-10-03T15:22:53.482Z,102168.84
2022-10-03T15:23:59.947Z,102168.72
2022-10-03T15:25:09.750Z,102166.03
2022-10-03T15:26:17.329Z,102163.34
2022-10-03T15:27:22.514Z,102152.50
2022-10-03T15:28:31.597Z,102159.56
2022-10-03T15:29:34.548Z,102159.41
2022-10-03T15:30:39.560Z,102155.88
2022-10-03T15:31:45.675Z,102148.84
2022-10-03T15:32:49.718Z,102150.78
2022-10-03T15:33:53.450Z,102154.47
2022-10-03T15:35:00.553Z,102142.88
2022-10-03T15:36:11.187Z,102145.69
2022-10-03T15:37:19.088Z,102152.06
2022-10-03T15:38:26.120Z,102148.63
2022-10-03T15:39:31.287Z,102147.66
2022-10-03T15:40:39.105Z,102143.16
2022-10-03T15:41:52.161Z,102144.97
2022-10-03T15:43:07.802Z,102141.44
2022-10-03T15:44:19.488Z,102139.88
2022-10-03T15:45:27.427Z,102147.06